sensor_id;sensor_type;location;lat;lon;timestamp;P1;durP1;ratioP1;P2;durP2;ratioP2
77304;SDS011;66364;52.622;7.746;2023-07-31T00:01:17;2.50;;;2.20;;
77304;SDS011;66364;52.622;7.746;2023-07-31T00:03:18;2.12;;;1.92;;
77304;SDS011;66364;52.622;7.746;2023-07-31T00:05:19;4.83;;;2.47;;
77304;SDS011;66364;52.622;7.746;2023-07-31T00:07:20;2.23;;;1.93;;
77304;SDS011;66364;52.622;7.746;2023-07-31T00:09:21;3.55;;;2.15;;
77304;SDS011;66364;52.622;7.746;2023-07-31T00:11:22;3.43;;;2.67;;
77304;SDS011;66364;52.622;7.746;2023-07-31T00:13:23;3.72;;;2.27;;
77304;SDS011;66364;52.622;7.746;2023-07-31T00:15:24;2.65;;;2.42;;
77304;SDS011;66364;52.622;7.746;2023-07-31T00:17:26;2.95;;;1.62;;
77304;SDS011;66364;52.622;7.746;2023-07-31T00:19:27;1.90;;;1.70;;
77304;SDS011;66364;52.622;7.746;2023-07-31T00:21:28;3.53;;;1.90;;
77304;SDS011;66364;52.622;7.746;2023-07-31T00:23:29;3.67;;;2.53;;
77304;SDS011;66364;52.622;7.746;2023-07-31T00:25:30;3.27;;;2.27;;
77304;SDS011;66364;52.622;7.746;2023-07-31T00:27:31;3.37;;;2.37;;
77304;SDS011;66364;52.622;7.746;2023-07-31T00:29:32;2.47;;;1.80;;
77304;SDS011;66364;52.622;7.746;2023-07-31T00:31:34;3.42;;;2.10;;
77304;SDS011;66364;52.622;7.746;2023-07-31T00:33:35;2.87;;;2.10;;
77304;SDS011;66364;52.622;7.746;2023-07-31T00:35:36;4.77;;;2.53;;
77304;SDS011;66364;52.622;7.746;2023-07-31T00:37:36;2.83;;;2.10;;
77304;SDS011;66364;52.622;7.746;2023-07-31T00:39:38;2.98;;;1.92;;
77304;SDS011;66364;52.622;7.746;2023-07-31T00:41:39;2.58;;;2.15;;
77304;SDS011;66364;52.622;7.746;2023-07-31T00:43:40;3.02;;;2.30;;
77304;SDS011;66364;52.622;7.746;2023-07-31T00:45:41;2.27;;;2.07;;
77304;SDS011;66364;52.622;7.746;2023-07-31T00:47:42;3.60;;;2.27;;
77304;SDS011;66364;52.622;7.746;2023-07-31T00:49:43;3.03;;;2.73;;
77304;SDS011;66364;52.622;7.746;2023-07-31T00:51:44;4.65;;;3.10;;
77304;SDS011;66364;52.622;7.746;2023-07-31T00:53:46;3.15;;;2.10;;
77304;SDS011;66364;52.622;7.746;2023-07-31T00:55:47;4.90;;;2.77;;
77304;SDS011;66364;52.622;7.746;2023-07-31T00:57:49;2.80;;;2.60;;
77304;SDS011;66364;52.622;7.746;2023-07-31T00:59:50;3.70;;;2.02;;
77304;SDS011;66364;52.622;7.746;2023-07-31T01:01:51;3.13;;;2.40;;
77304;SDS011;66364;52.622;7.746;2023-07-31T01:03:52;2.72;;;2.15;;
77304;SDS011;66364;52.622;7.746;2023-07-31T01:10:23;3.70;;;2.40;;
77304;SDS011;66364;52.622;7.746;2023-07-31T01:12:23;2.83;;;2.62;;
77304;SDS011;66364;52.622;7.746;2023-07-31T01:14:26;2.67;;;2.47;;
77304;SDS011;66364;52.622;7.746;2023-07-31T01:16:27;2.08;;;1.60;;
77304;SDS011;66364;52.622;7.746;2023-07-31T01:18:28;3.80;;;2.20;;
77304;SDS011;66364;52.622;7.746;2023-07-31T01:20:30;2.20;;;1.60;;
77304;SDS011;66364;52.622;7.746;2023-07-31T01:25:17;2.80;;;2.40;;
77304;SDS011;66364;52.622;7.746;2023-07-31T01:27:36;3.20;;;2.58;;
77304;SDS011;66364;52.622;7.746;2023-07-31T01:29:45;3.33;;;3.02;;
77304;SDS011;66364;52.622;7.746;2023-07-31T01:31:48;2.50;;;2.30;;
77304;SDS011;66364;52.622;7.746;2023-07-31T01:33:50;3.50;;;2.30;;
77304;SDS011;66364;52.622;7.746;2023-07-31T01:35:54;2.30;;;2.10;;
77304;SDS011;66364;52.622;7.746;2023-07-31T01:37:56;2.47;;;2.10;;
77304;SDS011;66364;52.622;7.746;2023-07-31T01:39:57;2.33;;;2.13;;
77304;SDS011;66364;52.622;7.746;2023-07-31T01:41:59;5.83;;;2.37;;
77304;SDS011;66364;52.622;7.746;2023-07-31T01:44:00;3.25;;;2.45;;
77304;SDS011;66364;52.622;7.746;2023-07-31T01:46:00;4.47;;;3.00;;
77304;SDS011;66364;52.622;7.746;2023-07-31T01:48:01;2.90;;;2.23;;
77304;SDS011;66364;52.622;7.746;2023-07-31T01:50:02;2.35;;;2.15;;
77304;SDS011;66364;52.622;7.746;2023-07-31T01:52:04;4.08;;;2.45;;
77304;SDS011;66364;52.622;7.746;2023-07-31T01:54:06;3.75;;;2.10;;
77304;SDS011;66364;52.622;7.746;2023-07-31T01:56:07;2.77;;;2.53;;
77304;SDS011;66364;52.622;7.746;2023-07-31T01:58:08;3.30;;;3.00;;
77304;SDS011;66364;52.622;7.746;2023-07-31T02:00:09;3.27;;;2.15;;
77304;SDS011;66364;52.622;7.746;2023-07-31T02:02:11;3.22;;;2.47;;
77304;SDS011;66364;52.622;7.746;2023-07-31T02:04:12;3.80;;;2.60;;
77304;SDS011;66364;52.622;7.746;2023-07-31T02:06:13;2.60;;;2.40;;
77304;SDS011;66364;52.622;7.746;2023-07-31T02:08:14;3.97;;;2.33;;
77304;SDS011;66364;52.622;7.746;2023-07-31T02:10:16;3.50;;;2.47;;
77304;SDS011;66364;52.622;7.746;2023-07-31T02:12:17;2.90;;;2.57;;
77304;SDS011;66364;52.622;7.746;2023-07-31T02:14:18;2.17;;;1.90;;
77304;SDS011;66364;52.622;7.746;2023-07-31T02:16:19;3.20;;;2.90;;
77304;SDS011;66364;52.622;7.746;2023-07-31T02:18:20;2.95;;;2.65;;
77304;SDS011;66364;52.622;7.746;2023-07-31T02:20:22;2.55;;;2.35;;
77304;SDS011;66364;52.622;7.746;2023-07-31T02:22:24;2.20;;;2.02;;
77304;SDS011;66364;52.622;7.746;2023-07-31T02:24:25;3.60;;;2.50;;
77304;SDS011;66364;52.622;7.746;2023-07-31T02:26:27;2.52;;;2.33;;
77304;SDS011;66364;52.622;7.746;2023-07-31T02:28:28;2.60;;;2.00;;
77304;SDS011;66364;52.622;7.746;2023-07-31T02:30:29;5.08;;;2.70;;
77304;SDS011;66364;52.622;7.746;2023-07-31T02:32:32;2.40;;;1.95;;
77304;SDS011;66364;52.622;7.746;2023-07-31T02:34:35;3.25;;;2.20;;
77304;SDS011;66364;52.622;7.746;2023-07-31T02:36:36;2.05;;;1.67;;
77304;SDS011;66364;52.622;7.746;2023-07-31T02:38:38;2.35;;;2.00;;
77304;SDS011;66364;52.622;7.746;2023-07-31T02:40:41;1.92;;;1.50;;
77304;SDS011;66364;52.622;7.746;2023-07-31T02:42:43;2.37;;;2.10;;
77304;SDS011;66364;52.622;7.746;2023-07-31T02:44:46;2.12;;;1.50;;
77304;SDS011;66364;52.622;7.746;2023-07-31T02:46:49;1.77;;;1.67;;
77304;SDS011;66364;52.622;7.746;2023-07-31T02:48:51;1.72;;;1.62;;
77304;SDS011;66364;52.622;7.746;2023-07-31T02:50:54;2.02;;;1.25;;
77304;SDS011;66364;52.622;7.746;2023-07-31T02:52:55;1.47;;;1.27;;
77304;SDS011;66364;52.622;7.746;2023-07-31T02:54:57;2.05;;;1.15;;
77304;SDS011;66364;52.622;7.746;2023-07-31T02:56:58;2.40;;;1.65;;
77304;SDS011;66364;52.622;7.746;2023-07-31T02:58:59;2.30;;;1.72;;
77304;SDS011;66364;52.622;7.746;2023-07-31T03:01:02;1.70;;;1.50;;
77304;SDS011;66364;52.622;7.746;2023-07-31T03:03:05;2.02;;;1.80;;
77304;SDS011;66364;52.622;7.746;2023-07-31T03:05:08;2.67;;;1.67;;
77304;SDS011;66364;52.622;7.746;2023-07-31T03:07:09;2.08;;;1.30;;
77304;SDS011;66364;52.622;7.746;2023-07-31T03:09:10;2.57;;;1.50;;
77304;SDS011;66364;52.622;7.746;2023-07-31T03:11:11;5.85;;;1.20;;
77304;SDS011;66364;52.622;7.746;2023-07-31T03:13:14;2.95;;;2.40;;
77304;SDS011;66364;52.622;7.746;2023-07-31T03:15:16;2.52;;;1.92;;
77304;SDS011;66364;52.622;7.746;2023-07-31T03:17:18;2.10;;;1.92;;
77304;SDS011;66364;52.622;7.746;2023-07-31T03:19:20;2.30;;;1.77;;
77304;SDS011;66364;52.622;7.746;2023-07-31T03:21:21;1.30;;;1.10;;
77304;SDS011;66364;52.622;7.746;2023-07-31T03:23:24;2.52;;;1.30;;
77304;SDS011;66364;52.622;7.746;2023-07-31T03:25:26;1.80;;;1.70;;
77304;SDS011;66364;52.622;7.746;2023-07-31T03:27:29;2.80;;;1.47;;
77304;SDS011;66364;52.622;7.746;2023-07-31T03:29:32;1.45;;;1.30;;
77304;SDS011;66364;52.622;7.746;2023-07-31T03:31:35;1.40;;;1.10;;
77304;SDS011;66364;52.622;7.746;2023-07-31T03:33:37;1.55;;;1.30;;
77304;SDS011;66364;52.622;7.746;2023-07-31T03:35:39;2.52;;;1.27;;
77304;SDS011;66364;52.622;7.746;2023-07-31T03:37:42;1.30;;;1.20;;
77304;SDS011;66364;52.622;7.746;2023-07-31T03:39:45;3.98;;;1.20;;
77304;SDS011;66364;52.622;7.746;2023-07-31T03:41:47;1.82;;;1.72;;
77304;SDS011;66364;52.622;7.746;2023-07-31T03:43:51;1.35;;;1.00;;
77304;SDS011;66364;52.622;7.746;2023-07-31T03:45:53;3.80;;;1.10;;
77304;SDS011;66364;52.622;7.746;2023-07-31T03:47:56;1.55;;;1.10;;
77304;SDS011;66364;52.622;7.746;2023-07-31T03:49:58;1.40;;;1.17;;
77304;SDS011;66364;52.622;7.746;2023-07-31T03:52:03;1.25;;;0.95;;
77304;SDS011;66364;52.622;7.746;2023-07-31T03:54:06;1.32;;;1.22;;
77304;SDS011;66364;52.622;7.746;2023-07-31T03:56:09;2.08;;;1.00;;
77304;SDS011;66364;52.622;7.746;2023-07-31T03:58:11;2.70;;;0.85;;
77304;SDS011;66364;52.622;7.746;2023-07-31T04:00:12;2.72;;;1.30;;
77304;SDS011;66364;52.622;7.746;2023-07-31T04:02:13;1.55;;;0.90;;
77304;SDS011;66364;52.622;7.746;2023-07-31T04:04:15;1.35;;;1.10;;
77304;SDS011;66364;52.622;7.746;2023-07-31T04:06:16;1.77;;;1.20;;
77304;SDS011;66364;52.622;7.746;2023-07-31T04:08:16;1.32;;;1.17;;
77304;SDS011;66364;52.622;7.746;2023-07-31T04:10:18;2.62;;;1.60;;
77304;SDS011;66364;52.622;7.746;2023-07-31T04:12:20;1.22;;;1.12;;
77304;SDS011;66364;52.622;7.746;2023-07-31T04:14:21;1.30;;;1.20;;
77304;SDS011;66364;52.622;7.746;2023-07-31T04:16:21;1.93;;;1.67;;
77304;SDS011;66364;52.622;7.746;2023-07-31T04:18:24;1.37;;;1.20;;
77304;SDS011;66364;52.622;7.746;2023-07-31T04:20:26;1.30;;;1.20;;
77304;SDS011;66364;52.622;7.746;2023-07-31T04:22:27;2.35;;;0.98;;
77304;SDS011;66364;52.622;7.746;2023-07-31T04:24:29;1.95;;;0.90;;
77304;SDS011;66364;52.622;7.746;2023-07-31T04:26:30;1.70;;;0.97;;
77304;SDS011;66364;52.622;7.746;2023-07-31T04:28:31;1.20;;;0.78;;
77304;SDS011;66364;52.622;7.746;2023-07-31T04:30:32;1.13;;;1.00;;
77304;SDS011;66364;52.622;7.746;2023-07-31T04:32:33;1.12;;;0.98;;
77304;SDS011;66364;52.622;7.746;2023-07-31T04:34:36;1.10;;;0.85;;
77304;SDS011;66364;52.622;7.746;2023-07-31T04:36:37;2.10;;;1.07;;
77304;SDS011;66364;52.622;7.746;2023-07-31T04:38:38;2.70;;;1.13;;
77304;SDS011;66364;52.622;7.746;2023-07-31T04:40:39;1.20;;;0.85;;
77304;SDS011;66364;52.622;7.746;2023-07-31T04:42:40;2.30;;;1.00;;
77304;SDS011;66364;52.622;7.746;2023-07-31T04:44:41;1.90;;;1.03;;
77304;SDS011;66364;52.622;7.746;2023-07-31T04:46:42;2.40;;;1.03;;
77304;SDS011;66364;52.622;7.746;2023-07-31T04:48:43;1.10;;;0.67;;
77304;SDS011;66364;52.622;7.746;2023-07-31T04:50:44;1.63;;;0.60;;
77304;SDS011;66364;52.622;7.746;2023-07-31T04:52:45;1.72;;;0.72;;
77304;SDS011;66364;52.622;7.746;2023-07-31T04:54:46;2.20;;;1.20;;
77304;SDS011;66364;52.622;7.746;2023-07-31T04:56:47;1.33;;;1.10;;
77304;SDS011;66364;52.622;7.746;2023-07-31T04:58:48;3.17;;;1.70;;
77304;SDS011;66364;52.622;7.746;2023-07-31T05:00:49;1.53;;;1.33;;
77304;SDS011;66364;52.622;7.746;2023-07-31T05:02:49;2.30;;;1.53;;
77304;SDS011;66364;52.622;7.746;2023-07-31T05:04:51;3.05;;;1.70;;
77304;SDS011;66364;52.622;7.746;2023-07-31T05:06:52;4.40;;;2.30;;
77304;SDS011;66364;52.622;7.746;2023-07-31T05:08:54;4.05;;;2.40;;
77304;SDS011;66364;52.622;7.746;2023-07-31T05:10:55;4.28;;;2.27;;
77304;SDS011;66364;52.622;7.746;2023-07-31T05:12:56;5.53;;;2.70;;
77304;SDS011;66364;52.622;7.746;2023-07-31T05:14:58;6.70;;;3.70;;
77304;SDS011;66364;52.622;7.746;2023-07-31T05:16:59;5.17;;;2.55;;
77304;SDS011;66364;52.622;7.746;2023-07-31T05:19:01;3.42;;;3.02;;
77304;SDS011;66364;52.622;7.746;2023-07-31T05:21:01;4.73;;;3.13;;
77304;SDS011;66364;52.622;7.746;2023-07-31T05:23:06;6.08;;;3.90;;
77304;SDS011;66364;52.622;7.746;2023-07-31T05:25:07;6.75;;;4.62;;
77304;SDS011;66364;52.622;7.746;2023-07-31T05:27:09;7.10;;;3.72;;
77304;SDS011;66364;52.622;7.746;2023-07-31T05:29:09;9.30;;;5.30;;
77304;SDS011;66364;52.622;7.746;2023-07-31T05:31:10;6.83;;;3.90;;
77304;SDS011;66364;52.622;7.746;2023-07-31T05:33:11;8.80;;;5.10;;
77304;SDS011;66364;52.622;7.746;2023-07-31T05:35:12;7.57;;;4.60;;
77304;SDS011;66364;52.622;7.746;2023-07-31T05:37:13;7.10;;;4.83;;
77304;SDS011;66364;52.622;7.746;2023-07-31T05:39:15;8.63;;;4.65;;
77304;SDS011;66364;52.622;7.746;2023-07-31T05:41:16;7.20;;;5.20;;
77304;SDS011;66364;52.622;7.746;2023-07-31T05:43:16;7.10;;;5.53;;
77304;SDS011;66364;52.622;7.746;2023-07-31T05:45:18;10.90;;;5.87;;
77304;SDS011;66364;52.622;7.746;2023-07-31T05:47:19;8.73;;;6.50;;
77304;SDS011;66364;52.622;7.746;2023-07-31T05:49:21;8.43;;;5.58;;
77304;SDS011;66364;52.622;7.746;2023-07-31T05:51:22;10.18;;;7.12;;
77304;SDS011;66364;52.622;7.746;2023-07-31T05:53:23;16.67;;;8.50;;
77304;SDS011;66364;52.622;7.746;2023-07-31T05:55:25;10.53;;;7.50;;
77304;SDS011;66364;52.622;7.746;2023-07-31T05:57:26;13.10;;;8.13;;
77304;SDS011;66364;52.622;7.746;2023-07-31T05:59:27;13.40;;;8.67;;
77304;SDS011;66364;52.622;7.746;2023-07-31T06:01:28;15.43;;;9.50;;
77304;SDS011;66364;52.622;7.746;2023-07-31T06:03:29;14.83;;;10.10;;
77304;SDS011;66364;52.622;7.746;2023-07-31T06:05:29;17.37;;;10.77;;
77304;SDS011;66364;52.622;7.746;2023-07-31T06:07:31;20.62;;;12.00;;
77304;SDS011;66364;52.622;7.746;2023-07-31T06:09:32;19.77;;;11.75;;
77304;SDS011;66364;52.622;7.746;2023-07-31T06:11:35;16.40;;;11.40;;
77304;SDS011;66364;52.622;7.746;2023-07-31T06:13:36;21.93;;;12.30;;
77304;SDS011;66364;52.622;7.746;2023-07-31T06:15:36;23.53;;;11.20;;
77304;SDS011;66364;52.622;7.746;2023-07-31T06:17:38;14.93;;;12.07;;
77304;SDS011;66364;52.622;7.746;2023-07-31T06:19:39;18.67;;;11.95;;
77304;SDS011;66364;52.622;7.746;2023-07-31T06:21:40;18.93;;;12.27;;
77304;SDS011;66364;52.622;7.746;2023-07-31T06:23:41;20.37;;;12.78;;
77304;SDS011;66364;52.622;7.746;2023-07-31T06:25:42;22.27;;;12.37;;
77304;SDS011;66364;52.622;7.746;2023-07-31T06:27:42;17.33;;;11.73;;
77304;SDS011;66364;52.622;7.746;2023-07-31T06:29:44;28.00;;;13.88;;
77304;SDS011;66364;52.622;7.746;2023-07-31T06:31:45;30.17;;;14.10;;
77304;SDS011;66364;52.622;7.746;2023-07-31T06:33:47;22.45;;;12.45;;
77304;SDS011;66364;52.622;7.746;2023-07-31T06:35:48;24.50;;;12.90;;
77304;SDS011;66364;52.622;7.746;2023-07-31T06:37:49;24.90;;;13.10;;
77304;SDS011;66364;52.622;7.746;2023-07-31T06:39:50;19.63;;;12.60;;
77304;SDS011;66364;52.622;7.746;2023-07-31T06:41:51;30.50;;;12.47;;
77304;SDS011;66364;52.622;7.746;2023-07-31T06:43:52;20.03;;;13.10;;
77304;SDS011;66364;52.622;7.746;2023-07-31T06:45:53;17.37;;;12.00;;
77304;SDS011;66364;52.622;7.746;2023-07-31T06:47:54;21.15;;;12.43;;
77304;SDS011;66364;52.622;7.746;2023-07-31T06:49:55;25.03;;;13.57;;
77304;SDS011;66364;52.622;7.746;2023-07-31T06:51:56;20.62;;;13.30;;
77304;SDS011;66364;52.622;7.746;2023-07-31T06:53:58;19.57;;;12.73;;
77304;SDS011;66364;52.622;7.746;2023-07-31T06:55:59;20.70;;;12.40;;
77304;SDS011;66364;52.622;7.746;2023-07-31T06:58:00;23.83;;;11.97;;
77304;SDS011;66364;52.622;7.746;2023-07-31T07:00:01;21.47;;;11.73;;
77304;SDS011;66364;52.622;7.746;2023-07-31T07:02:02;20.43;;;9.97;;
77304;SDS011;66364;52.622;7.746;2023-07-31T07:04:02;16.00;;;11.30;;
77304;SDS011;66364;52.622;7.746;2023-07-31T07:06:05;18.50;;;11.25;;
77304;SDS011;66364;52.622;7.746;2023-07-31T07:08:07;16.95;;;10.05;;
77304;SDS011;66364;52.622;7.746;2023-07-31T07:10:09;25.37;;;10.80;;
77304;SDS011;66364;52.622;7.746;2023-07-31T07:12:10;17.40;;;10.68;;
77304;SDS011;66364;52.622;7.746;2023-07-31T07:14:11;15.20;;;11.40;;
77304;SDS011;66364;52.622;7.746;2023-07-31T07:16:12;25.17;;;12.00;;
77304;SDS011;66364;52.622;7.746;2023-07-31T07:18:13;23.20;;;12.37;;
77304;SDS011;66364;52.622;7.746;2023-07-31T07:20:14;18.12;;;10.90;;
77304;SDS011;66364;52.622;7.746;2023-07-31T07:22:15;22.20;;;11.28;;
77304;SDS011;66364;52.622;7.746;2023-07-31T07:24:16;17.60;;;11.20;;
77304;SDS011;66364;52.622;7.746;2023-07-31T07:26:17;18.20;;;12.00;;
77304;SDS011;66364;52.622;7.746;2023-07-31T07:28:19;18.32;;;11.43;;
77304;SDS011;66364;52.622;7.746;2023-07-31T07:30:19;20.33;;;10.43;;
77304;SDS011;66364;52.622;7.746;2023-07-31T07:32:21;15.25;;;9.13;;
77304;SDS011;66364;52.622;7.746;2023-07-31T07:34:22;18.00;;;10.78;;
77304;SDS011;66364;52.622;7.746;2023-07-31T07:36:27;18.32;;;10.95;;
77304;SDS011;66364;52.622;7.746;2023-07-31T07:38:28;18.62;;;9.80;;
77304;SDS011;66364;52.622;7.746;2023-07-31T07:40:29;17.77;;;8.50;;
77304;SDS011;66364;52.622;7.746;2023-07-31T07:42:31;13.43;;;8.93;;
77304;SDS011;66364;52.622;7.746;2023-07-31T07:44:32;17.17;;;8.73;;
77304;SDS011;66364;52.622;7.746;2023-07-31T07:46:33;16.80;;;8.30;;
77304;SDS011;66364;52.622;7.746;2023-07-31T07:48:34;17.97;;;8.33;;
77304;SDS011;66364;52.622;7.746;2023-07-31T07:50:35;14.65;;;8.65;;
77304;SDS011;66364;52.622;7.746;2023-07-31T07:52:35;12.30;;;8.03;;
77304;SDS011;66364;52.622;7.746;2023-07-31T07:54:36;14.73;;;8.50;;
77304;SDS011;66364;52.622;7.746;2023-07-31T07:56:38;16.35;;;8.55;;
77304;SDS011;66364;52.622;7.746;2023-07-31T07:58:39;21.30;;;11.93;;
77304;SDS011;66364;52.622;7.746;2023-07-31T08:00:40;15.03;;;7.37;;
77304;SDS011;66364;52.622;7.746;2023-07-31T08:02:40;13.80;;;7.17;;
77304;SDS011;66364;52.622;7.746;2023-07-31T08:04:41;11.37;;;6.50;;
77304;SDS011;66364;52.622;7.746;2023-07-31T08:06:42;14.10;;;6.67;;
77304;SDS011;66364;52.622;7.746;2023-07-31T08:08:44;15.00;;;6.80;;
77304;SDS011;66364;52.622;7.746;2023-07-31T08:10:45;10.05;;;7.20;;
77304;SDS011;66364;52.622;7.746;2023-07-31T08:12:46;8.87;;;6.10;;
77304;SDS011;66364;52.622;7.746;2023-07-31T08:14:46;8.50;;;5.23;;
77304;SDS011;66364;52.622;7.746;2023-07-31T08:16:47;8.35;;;5.72;;
77304;SDS011;66364;52.622;7.746;2023-07-31T08:18:48;9.20;;;5.60;;
77304;SDS011;66364;52.622;7.746;2023-07-31T08:20:49;9.80;;;6.70;;
77304;SDS011;66364;52.622;7.746;2023-07-31T08:22:50;11.60;;;6.00;;
77304;SDS011;66364;52.622;7.746;2023-07-31T08:24:51;8.57;;;5.53;;
77304;SDS011;66364;52.622;7.746;2023-07-31T08:26:52;6.00;;;4.60;;
77304;SDS011;66364;52.622;7.746;2023-07-31T08:28:53;8.13;;;4.87;;
77304;SDS011;66364;52.622;7.746;2023-07-31T08:30:54;9.60;;;5.08;;
77304;SDS011;66364;52.622;7.746;2023-07-31T08:32:55;8.20;;;5.13;;
77304;SDS011;66364;52.622;7.746;2023-07-31T08:34:57;6.35;;;4.17;;
77304;SDS011;66364;52.622;7.746;2023-07-31T08:36:59;9.23;;;5.85;;
77304;SDS011;66364;52.622;7.746;2023-07-31T08:39:02;8.83;;;5.67;;
77304;SDS011;66364;52.622;7.746;2023-07-31T08:41:03;6.12;;;3.70;;
77304;SDS011;66364;52.622;7.746;2023-07-31T08:43:05;8.20;;;4.40;;
77304;SDS011;66364;52.622;7.746;2023-07-31T08:45:06;6.40;;;4.47;;
77304;SDS011;66364;52.622;7.746;2023-07-31T08:47:09;5.87;;;4.00;;
77304;SDS011;66364;52.622;7.746;2023-07-31T08:49:11;6.10;;;4.65;;
77304;SDS011;66364;52.622;7.746;2023-07-31T08:51:13;7.12;;;3.70;;
77304;SDS011;66364;52.622;7.746;2023-07-31T08:53:14;6.50;;;3.12;;
77304;SDS011;66364;52.622;7.746;2023-07-31T08:55:15;2.60;;;2.40;;
77304;SDS011;66364;52.622;7.746;2023-07-31T08:57:16;6.30;;;4.40;;
77304;SDS011;66364;52.622;7.746;2023-07-31T08:59:18;6.03;;;3.35;;
77304;SDS011;66364;52.622;7.746;2023-07-31T09:01:21;3.98;;;3.10;;
77304;SDS011;66364;52.622;7.746;2023-07-31T09:03:24;5.03;;;3.12;;
77304;SDS011;66364;52.622;7.746;2023-07-31T09:05:26;3.62;;;2.62;;
77304;SDS011;66364;52.622;7.746;2023-07-31T09:07:28;4.58;;;3.45;;
77304;SDS011;66364;52.622;7.746;2023-07-31T09:09:32;3.83;;;2.60;;
77304;SDS011;66364;52.622;7.746;2023-07-31T09:11:33;3.37;;;2.85;;
77304;SDS011;66364;52.622;7.746;2023-07-31T09:13:34;3.70;;;2.60;;
77304;SDS011;66364;52.622;7.746;2023-07-31T09:15:36;7.17;;;2.92;;
77304;SDS011;66364;52.622;7.746;2023-07-31T09:17:37;3.55;;;2.47;;
77304;SDS011;66364;52.622;7.746;2023-07-31T09:19:39;3.50;;;2.50;;
77304;SDS011;66364;52.622;7.746;2023-07-31T09:21:49;2.70;;;2.35;;
77304;SDS011;66364;52.622;7.746;2023-07-31T09:23:50;2.75;;;2.55;;
77304;SDS011;66364;52.622;7.746;2023-07-31T09:25:51;3.00;;;1.82;;
77304;SDS011;66364;52.622;7.746;2023-07-31T09:29:59;3.35;;;2.10;;
77304;SDS011;66364;52.622;7.746;2023-07-31T09:32:00;1.60;;;1.45;;
77304;SDS011;66364;52.622;7.746;2023-07-31T09:34:01;2.47;;;2.27;;
77304;SDS011;66364;52.622;7.746;2023-07-31T09:36:01;1.67;;;1.23;;
77304;SDS011;66364;52.622;7.746;2023-07-31T09:38:09;2.35;;;1.57;;
77304;SDS011;66364;52.622;7.746;2023-07-31T09:40:12;1.95;;;1.75;;
77304;SDS011;66364;52.622;7.746;2023-07-31T09:42:24;1.82;;;1.62;;
77304;SDS011;66364;52.622;7.746;2023-07-31T09:44:37;2.25;;;1.47;;
77304;SDS011;66364;52.622;7.746;2023-07-31T09:46:39;1.72;;;1.22;;
77304;SDS011;66364;52.622;7.746;2023-07-31T09:48:41;2.25;;;1.62;;
77304;SDS011;66364;52.622;7.746;2023-07-31T09:50:43;1.90;;;1.50;;
77304;SDS011;66364;52.622;7.746;2023-07-31T09:52:45;1.55;;;1.45;;
77304;SDS011;66364;52.622;7.746;2023-07-31T09:54:46;1.22;;;1.12;;
77304;SDS011;66364;52.622;7.746;2023-07-31T09:56:48;1.67;;;1.20;;
77304;SDS011;66364;52.622;7.746;2023-07-31T09:58:49;2.58;;;1.27;;
77304;SDS011;66364;52.622;7.746;2023-07-31T10:00:51;1.20;;;1.00;;
77304;SDS011;66364;52.622;7.746;2023-07-31T10:02:54;2.20;;;1.15;;
77304;SDS011;66364;52.622;7.746;2023-07-31T10:04:57;1.30;;;1.20;;
77304;SDS011;66364;52.622;7.746;2023-07-31T10:06:59;1.40;;;1.20;;
77304;SDS011;66364;52.622;7.746;2023-07-31T10:09:06;2.77;;;1.07;;
77304;SDS011;66364;52.622;7.746;2023-07-31T10:11:09;0.80;;;0.80;;
77304;SDS011;66364;52.622;7.746;2023-07-31T10:13:10;1.82;;;1.05;;
77304;SDS011;66364;52.622;7.746;2023-07-31T10:15:12;1.17;;;1.07;;
77304;SDS011;66364;52.622;7.746;2023-07-31T10:17:15;1.10;;;1.00;;
77304;SDS011;66364;52.622;7.746;2023-07-31T10:19:18;1.05;;;0.70;;
77304;SDS011;66364;52.622;7.746;2023-07-31T10:21:20;0.75;;;0.65;;
77304;SDS011;66364;52.622;7.746;2023-07-31T10:23:22;1.10;;;0.95;;
77304;SDS011;66364;52.622;7.746;2023-07-31T10:25:26;0.90;;;0.68;;
77304;SDS011;66364;52.622;7.746;2023-07-31T10:27:27;0.90;;;0.70;;
77304;SDS011;66364;52.622;7.746;2023-07-31T10:29:28;0.70;;;0.60;;
77304;SDS011;66364;52.622;7.746;2023-07-31T10:31:30;1.00;;;0.80;;
77304;SDS011;66364;52.622;7.746;2023-07-31T10:33:32;1.00;;;0.90;;
77304;SDS011;66364;52.622;7.746;2023-07-31T10:35:33;1.60;;;0.98;;
77304;SDS011;66364;52.622;7.746;2023-07-31T10:37:38;1.20;;;1.10;;
77304;SDS011;66364;52.622;7.746;2023-07-31T10:39:41;1.07;;;0.75;;
77304;SDS011;66364;52.622;7.746;2023-07-31T10:41:41;0.90;;;0.73;;
77304;SDS011;66364;52.622;7.746;2023-07-31T10:43:45;1.00;;;0.60;;
77304;SDS011;66364;52.622;7.746;2023-07-31T10:45:47;2.20;;;0.80;;
77304;SDS011;66364;52.622;7.746;2023-07-31T10:47:49;1.22;;;1.00;;
77304;SDS011;66364;52.622;7.746;2023-07-31T10:50:11;1.45;;;0.80;;
77304;SDS011;66364;52.622;7.746;2023-07-31T10:52:13;1.10;;;1.00;;
77304;SDS011;66364;52.622;7.746;2023-07-31T10:54:15;1.20;;;1.10;;
77304;SDS011;66364;52.622;7.746;2023-07-31T10:56:16;0.70;;;0.70;;
77304;SDS011;66364;52.622;7.746;2023-07-31T10:58:19;0.75;;;0.72;;
77304;SDS011;66364;52.622;7.746;2023-07-31T11:00:23;1.60;;;1.50;;
77304;SDS011;66364;52.622;7.746;2023-07-31T11:02:32;0.75;;;0.72;;
77304;SDS011;66364;52.622;7.746;2023-07-31T11:04:34;0.88;;;0.85;;
77304;SDS011;66364;52.622;7.746;2023-07-31T11:06:34;2.70;;;1.03;;
77304;SDS011;66364;52.622;7.746;2023-07-31T11:08:47;1.20;;;1.05;;
77304;SDS011;66364;52.622;7.746;2023-07-31T11:11:04;1.65;;;0.98;;
77304;SDS011;66364;52.622;7.746;2023-07-31T11:13:06;1.22;;;1.00;;
77304;SDS011;66364;52.622;7.746;2023-07-31T11:15:08;3.25;;;1.25;;
77304;SDS011;66364;52.622;7.746;2023-07-31T11:17:10;1.60;;;1.12;;
77304;SDS011;66364;52.622;7.746;2023-07-31T11:19:11;1.52;;;1.25;;
77304;SDS011;66364;52.622;7.746;2023-07-31T11:21:16;1.77;;;1.20;;
77304;SDS011;66364;52.622;7.746;2023-07-31T11:23:18;2.55;;;1.15;;
77304;SDS011;66364;52.622;7.746;2023-07-31T11:25:20;4.17;;;1.15;;
77304;SDS011;66364;52.622;7.746;2023-07-31T11:27:23;2.95;;;1.55;;
77304;SDS011;66364;52.622;7.746;2023-07-31T11:29:27;1.60;;;1.50;;
77304;SDS011;66364;52.622;7.746;2023-07-31T11:31:28;1.60;;;1.50;;
77304;SDS011;66364;52.622;7.746;2023-07-31T11:33:29;1.80;;;1.60;;
77304;SDS011;66364;52.622;7.746;2023-07-31T11:35:31;2.12;;;1.92;;
77304;SDS011;66364;52.622;7.746;2023-07-31T11:37:40;2.00;;;1.87;;
77304;SDS011;66364;52.622;7.746;2023-07-31T11:39:58;2.55;;;2.12;;
77304;SDS011;66364;52.622;7.746;2023-07-31T11:42:01;1.80;;;1.70;;
77304;SDS011;66364;52.622;7.746;2023-07-31T11:44:02;2.40;;;2.20;;
77304;SDS011;66364;52.622;7.746;2023-07-31T11:46:05;2.65;;;2.40;;
77304;SDS011;66364;52.622;7.746;2023-07-31T11:48:06;2.70;;;2.47;;
77304;SDS011;66364;52.622;7.746;2023-07-31T11:50:10;2.58;;;2.37;;
77304;SDS011;66364;52.622;7.746;2023-07-31T11:52:11;3.90;;;2.35;;
77304;SDS011;66364;52.622;7.746;2023-07-31T11:54:13;2.37;;;2.15;;
77304;SDS011;66364;52.622;7.746;2023-07-31T11:56:16;2.75;;;2.55;;
77304;SDS011;66364;52.622;7.746;2023-07-31T11:58:19;3.90;;;2.30;;
77304;SDS011;66364;52.622;7.746;2023-07-31T12:00:21;2.70;;;2.50;;
77304;SDS011;66364;52.622;7.746;2023-07-31T12:02:22;2.90;;;2.43;;
77304;SDS011;66364;52.622;7.746;2023-07-31T12:04:24;4.10;;;2.87;;
77304;SDS011;66364;52.622;7.746;2023-07-31T12:06:34;3.60;;;3.30;;
77304;SDS011;66364;52.622;7.746;2023-07-31T12:08:36;3.00;;;2.70;;
77304;SDS011;66364;52.622;7.746;2023-07-31T12:10:38;3.95;;;3.65;;
77304;SDS011;66364;52.622;7.746;2023-07-31T12:12:39;3.80;;;3.50;;
77304;SDS011;66364;52.622;7.746;2023-07-31T12:14:41;3.07;;;2.87;;
77304;SDS011;66364;52.622;7.746;2023-07-31T12:16:42;3.87;;;3.58;;
77304;SDS011;66364;52.622;7.746;2023-07-31T12:18:43;4.37;;;3.97;;
77304;SDS011;66364;52.622;7.746;2023-07-31T12:20:45;3.10;;;2.80;;